sensor_id;sensor_type;location;lat;lon;timestamp;P1;durP1;ratioP1;P2;durP2;ratioP2
42886;SDS011;29032;56.028;92.904;2023-12-29T00:03:39;19.03;;;9.17;;
42886;SDS011;29032;56.028;92.904;2023-12-29T00:08:43;15.30;;;8.93;;
42886;SDS011;29032;56.028;92.904;2023-12-29T00:13:45;14.07;;;8.67;;
42886;SDS011;29032;56.028;92.904;2023-12-29T00:18:47;14.77;;;8.40;;
42886;SDS011;29032;56.028;92.904;2023-12-29T00:23:51;16.10;;;9.40;;
42886;SDS011;29032;56.028;92.904;2023-12-29T00:28:53;20.60;;;10.47;;
42886;SDS011;29032;56.028;92.904;2023-12-29T00:33:55;26.83;;;13.53;;
42886;SDS011;29032;56.028;92.904;2023-12-29T00:38:59;24.50;;;11.67;;
42886;SDS011;29032;56.028;92.904;2023-12-29T00:44:02;24.17;;;11.27;;
42886;SDS011;29032;56.028;92.904;2023-12-29T00:49:04;20.23;;;10.57;;
42886;SDS011;29032;56.028;92.904;2023-12-29T00:54:08;21.80;;;10.70;;
42886;SDS011;29032;56.028;92.904;2023-12-29T00:59:10;17.10;;;9.10;;
42886;SDS011;29032;56.028;92.904;2023-12-29T01:04:13;16.70;;;9.17;;
42886;SDS011;29032;56.028;92.904;2023-12-29T01:09:16;19.53;;;10.43;;
42886;SDS011;29032;56.028;92.904;2023-12-29T01:14:18;17.20;;;9.80;;
42886;SDS011;29032;56.028;92.904;2023-12-29T01:19:20;16.13;;;9.77;;
42886;SDS011;29032;56.028;92.904;2023-12-29T01:24:24;16.40;;;10.23;;
42886;SDS011;29032;56.028;92.904;2023-12-29T01:29:26;15.50;;;9.17;;
42886;SDS011;29032;56.028;92.904;2023-12-29T01:34:31;13.00;;;8.07;;
42886;SDS011;29032;56.028;92.904;2023-12-29T01:39:35;12.73;;;8.20;;
42886;SDS011;29032;56.028;92.904;2023-12-29T01:44:37;16.60;;;9.80;;
42886;SDS011;29032;56.028;92.904;2023-12-29T01:49:39;14.20;;;8.73;;
42886;SDS011;29032;56.028;92.904;2023-12-29T01:54:44;14.40;;;8.30;;
42886;SDS011;29032;56.028;92.904;2023-12-29T01:59:49;13.33;;;7.70;;
42886;SDS011;29032;56.028;92.904;2023-12-29T02:04:51;13.67;;;8.40;;
42886;SDS011;29032;56.028;92.904;2023-12-29T02:09:55;12.60;;;7.70;;
42886;SDS011;29032;56.028;92.904;2023-12-29T02:14:57;13.27;;;8.30;;
42886;SDS011;29032;56.028;92.904;2023-12-29T02:20:00;13.63;;;8.77;;
42886;SDS011;29032;56.028;92.904;2023-12-29T02:25:05;12.57;;;8.53;;
42886;SDS011;29032;56.028;92.904;2023-12-29T02:30:08;15.20;;;8.07;;
42886;SDS011;29032;56.028;92.904;2023-12-29T02:35:12;12.13;;;8.30;;
42886;SDS011;29032;56.028;92.904;2023-12-29T02:40:20;12.25;;;7.65;;
42886;SDS011;29032;56.028;92.904;2023-12-29T02:45:23;14.37;;;8.40;;
42886;SDS011;29032;56.028;92.904;2023-12-29T02:50:25;14.60;;;9.07;;
42886;SDS011;29032;56.028;92.904;2023-12-29T02:55:29;13.47;;;8.83;;
42886;SDS011;29032;56.028;92.904;2023-12-29T03:00:32;16.60;;;8.77;;
42886;SDS011;29032;56.028;92.904;2023-12-29T03:05:34;20.60;;;11.67;;
42886;SDS011;29032;56.028;92.904;2023-12-29T03:10:37;21.67;;;11.20;;
42886;SDS011;29032;56.028;92.904;2023-12-29T03:15:40;26.13;;;12.10;;
42886;SDS011;29032;56.028;92.904;2023-12-29T03:20:42;20.23;;;9.93;;
42886;SDS011;29032;56.028;92.904;2023-12-29T03:25:46;16.30;;;9.30;;
42886;SDS011;29032;56.028;92.904;2023-12-29T03:30:48;25.87;;;14.60;;
42886;SDS011;29032;56.028;92.904;2023-12-29T03:35:50;22.07;;;13.23;;
42886;SDS011;29032;56.028;92.904;2023-12-29T03:40:54;13.07;;;8.50;;
42886;SDS011;29032;56.028;92.904;2023-12-29T03:45:56;18.27;;;8.80;;
42886;SDS011;29032;56.028;92.904;2023-12-29T03:50:59;13.43;;;8.30;;
42886;SDS011;29032;56.028;92.904;2023-12-29T03:56:06;10.57;;;7.07;;
42886;SDS011;29032;56.028;92.904;2023-12-29T04:01:09;12.23;;;6.67;;
42886;SDS011;29032;56.028;92.904;2023-12-29T04:06:11;11.63;;;7.23;;
42886;SDS011;29032;56.028;92.904;2023-12-29T04:11:15;10.57;;;6.63;;
42886;SDS011;29032;56.028;92.904;2023-12-29T04:16:17;12.47;;;7.20;;
42886;SDS011;29032;56.028;92.904;2023-12-29T04:21:19;12.17;;;6.63;;
42886;SDS011;29032;56.028;92.904;2023-12-29T04:26:23;14.50;;;7.97;;
42886;SDS011;29032;56.028;92.904;2023-12-29T04:31:25;38.83;;;19.73;;
42886;SDS011;29032;56.028;92.904;2023-12-29T04:36:27;66.03;;;32.33;;
42886;SDS011;29032;56.028;92.904;2023-12-29T04:41:31;43.67;;;24.00;;
42886;SDS011;29032;56.028;92.904;2023-12-29T04:46:33;14.73;;;9.47;;
42886;SDS011;29032;56.028;92.904;2023-12-29T04:51:35;13.03;;;7.47;;
42886;SDS011;29032;56.028;92.904;2023-12-29T04:56:39;10.37;;;6.37;;
42886;SDS011;29032;56.028;92.904;2023-12-29T05:01:41;11.73;;;6.43;;
42886;SDS011;29032;56.028;92.904;2023-12-29T05:06:44;12.07;;;6.77;;
42886;SDS011;29032;56.028;92.904;2023-12-29T05:11:48;12.13;;;6.97;;
42886;SDS011;29032;56.028;92.904;2023-12-29T05:16:50;10.10;;;6.63;;
42886;SDS011;29032;56.028;92.904;2023-12-29T05:21:52;9.07;;;5.93;;
42886;SDS011;29032;56.028;92.904;2023-12-29T05:26:56;10.47;;;6.00;;
42886;SDS011;29032;56.028;92.904;2023-12-29T05:31:58;10.70;;;5.37;;
42886;SDS011;29032;56.028;92.904;2023-12-29T05:37:00;9.30;;;5.30;;
42886;SDS011;29032;56.028;92.904;2023-12-29T05:42:04;9.70;;;6.03;;
42886;SDS011;29032;56.028;92.904;2023-12-29T05:47:06;9.40;;;5.33;;
42886;SDS011;29032;56.028;92.904;2023-12-29T05:52:09;7.40;;;5.17;;
42886;SDS011;29032;56.028;92.904;2023-12-29T05:57:12;7.60;;;5.47;;
42886;SDS011;29032;56.028;92.904;2023-12-29T06:02:15;10.63;;;6.30;;
42886;SDS011;29032;56.028;92.904;2023-12-29T06:07:17;12.57;;;6.27;;
42886;SDS011;29032;56.028;92.904;2023-12-29T06:12:21;10.53;;;6.60;;
42886;SDS011;29032;56.028;92.904;2023-12-29T06:17:23;9.70;;;6.20;;
42886;SDS011;29032;56.028;92.904;2023-12-29T06:22:26;9.13;;;5.73;;
42886;SDS011;29032;56.028;92.904;2023-12-29T06:27:30;9.80;;;5.83;;
42886;SDS011;29032;56.028;92.904;2023-12-29T06:32:33;8.57;;;5.87;;
42886;SDS011;29032;56.028;92.904;2023-12-29T06:37:36;9.30;;;4.97;;
42886;SDS011;29032;56.028;92.904;2023-12-29T06:42:40;9.37;;;5.50;;
42886;SDS011;29032;56.028;92.904;2023-12-29T06:47:42;10.20;;;6.50;;
42886;SDS011;29032;56.028;92.904;2023-12-29T06:52:44;9.53;;;5.77;;
42886;SDS011;29032;56.028;92.904;2023-12-29T06:57:48;9.97;;;5.73;;
42886;SDS011;29032;56.028;92.904;2023-12-29T07:02:50;9.93;;;5.53;;
42886;SDS011;29032;56.028;92.904;2023-12-29T07:07:53;11.03;;;6.20;;
42886;SDS011;29032;56.028;92.904;2023-12-29T07:12:56;10.23;;;6.07;;
42886;SDS011;29032;56.028;92.904;2023-12-29T07:17:59;10.77;;;6.27;;
42886;SDS011;29032;56.028;92.904;2023-12-29T07:23:01;8.20;;;5.17;;
42886;SDS011;29032;56.028;92.904;2023-12-29T07:28:05;7.17;;;5.43;;
42886;SDS011;29032;56.028;92.904;2023-12-29T07:33:07;8.87;;;6.37;;
42886;SDS011;29032;56.028;92.904;2023-12-29T07:38:09;6.80;;;4.83;;
42886;SDS011;29032;56.028;92.904;2023-12-29T07:43:13;9.53;;;5.97;;
42886;SDS011;29032;56.028;92.904;2023-12-29T07:48:15;8.57;;;4.90;;
42886;SDS011;29032;56.028;92.904;2023-12-29T07:53:17;7.03;;;5.30;;
42886;SDS011;29032;56.028;92.904;2023-12-29T07:58:21;8.20;;;5.00;;
42886;SDS011;29032;56.028;92.904;2023-12-29T08:03:23;8.07;;;5.40;;
42886;SDS011;29032;56.028;92.904;2023-12-29T08:08:26;9.70;;;5.20;;
42886;SDS011;29032;56.028;92.904;2023-12-29T08:13:30;8.10;;;5.20;;
42886;SDS011;29032;56.028;92.904;2023-12-29T08:18:32;7.83;;;5.27;;
42886;SDS011;29032;56.028;92.904;2023-12-29T08:23:35;10.77;;;6.13;;
42886;SDS011;29032;56.028;92.904;2023-12-29T08:28:38;12.37;;;7.70;;
42886;SDS011;29032;56.028;92.904;2023-12-29T08:33:40;12.47;;;7.20;;
42886;SDS011;29032;56.028;92.904;2023-12-29T08:38:43;10.50;;;6.37;;
42886;SDS011;29032;56.028;92.904;2023-12-29T08:43:46;11.83;;;8.03;;
42886;SDS011;29032;56.028;92.904;2023-12-29T08:48:48;16.87;;;8.60;;
42886;SDS011;29032;56.028;92.904;2023-12-29T08:53:51;15.67;;;9.67;;
42886;SDS011;29032;56.028;92.904;2023-12-29T08:58:54;19.37;;;10.80;;
42886;SDS011;29032;56.028;92.904;2023-12-29T09:03:56;20.90;;;13.27;;
42886;SDS011;29032;56.028;92.904;2023-12-29T09:08:59;23.53;;;12.60;;
42886;SDS011;29032;56.028;92.904;2023-12-29T09:14:02;22.63;;;13.60;;
42886;SDS011;29032;56.028;92.904;2023-12-29T09:19:05;25.57;;;14.33;;
42886;SDS011;29032;56.028;92.904;2023-12-29T09:24:07;28.67;;;15.77;;
42886;SDS011;29032;56.028;92.904;2023-12-29T09:29:11;22.17;;;14.20;;
42886;SDS011;29032;56.028;92.904;2023-12-29T09:34:13;21.30;;;13.90;;
42886;SDS011;29032;56.028;92.904;2023-12-29T09:39:15;24.23;;;13.77;;
42886;SDS011;29032;56.028;92.904;2023-12-29T09:44:20;22.00;;;13.80;;
42886;SDS011;29032;56.028;92.904;2023-12-29T09:49:22;25.00;;;14.30;;
42886;SDS011;29032;56.028;92.904;2023-12-29T09:54:26;24.63;;;14.20;;
42886;SDS011;29032;56.028;92.904;2023-12-29T09:59:30;22.30;;;13.53;;
42886;SDS011;29032;56.028;92.904;2023-12-29T10:04:35;21.75;;;13.38;;
42886;SDS011;29032;56.028;92.904;2023-12-29T10:09:38;24.47;;;15.10;;
42886;SDS011;29032;56.028;92.904;2023-12-29T10:14:46;27.77;;;15.07;;
42886;SDS011;29032;56.028;92.904;2023-12-29T10:19:53;24.43;;;13.60;;
42886;SDS011;29032;56.028;92.904;2023-12-29T10:25:04;25.53;;;14.87;;
42886;SDS011;29032;56.028;92.904;2023-12-29T10:30:09;23.37;;;14.67;;
42886;SDS011;29032;56.028;92.904;2023-12-29T10:35:13;22.73;;;12.93;;
42886;SDS011;29032;56.028;92.904;2023-12-29T10:40:18;24.40;;;13.17;;
42886;SDS011;29032;56.028;92.904;2023-12-29T10:45:23;19.63;;;11.73;;
42886;SDS011;29032;56.028;92.904;2023-12-29T10:50:26;22.47;;;11.70;;
42886;SDS011;29032;56.028;92.904;2023-12-29T10:55:28;17.43;;;10.17;;
42886;SDS011;29032;56.028;92.904;2023-12-29T11:00:35;19.70;;;11.40;;
42886;SDS011;29032;56.028;92.904;2023-12-29T11:05:43;17.23;;;9.90;;
42886;SDS011;29032;56.028;92.904;2023-12-29T11:10:45;19.73;;;10.50;;
42886;SDS011;29032;56.028;92.904;2023-12-29T11:15:50;19.67;;;10.80;;
42886;SDS011;29032;56.028;92.904;2023-12-29T11:20:55;20.73;;;11.10;;
42886;SDS011;29032;56.028;92.904;2023-12-29T11:25:58;19.73;;;11.43;;
42886;SDS011;29032;56.028;92.904;2023-12-29T11:31:03;16.50;;;9.83;;
42886;SDS011;29032;56.028;92.904;2023-12-29T11:36:08;17.00;;;10.50;;
42886;SDS011;29032;56.028;92.904;2023-12-29T11:41:18;14.43;;;9.50;;
42886;SDS011;29032;56.028;92.904;2023-12-29T11:46:36;20.97;;;10.60;;
42886;SDS011;29032;56.028;92.904;2023-12-29T11:51:40;16.30;;;9.80;;
42886;SDS011;29032;56.028;92.904;2023-12-29T11:56:43;20.97;;;10.13;;
42886;SDS011;29032;56.028;92.904;2023-12-29T12:01:50;21.33;;;10.60;;
42886;SDS011;29032;56.028;92.904;2023-12-29T12:06:53;23.30;;;12.40;;
42886;SDS011;29032;56.028;92.904;2023-12-29T12:11:55;21.47;;;11.47;;
42886;SDS011;29032;56.028;92.904;2023-12-29T12:16:58;23.97;;;11.53;;
42886;SDS011;29032;56.028;92.904;2023-12-29T12:22:01;21.97;;;11.47;;
42886;SDS011;29032;56.028;92.904;2023-12-29T12:27:03;23.17;;;11.70;;
42886;SDS011;29032;56.028;92.904;2023-12-29T12:32:15;21.37;;;11.87;;
42886;SDS011;29032;56.028;92.904;2023-12-29T12:37:22;21.65;;;11.43;;
42886;SDS011;29032;56.028;92.904;2023-12-29T12:42:25;18.40;;;10.37;;
42886;SDS011;29032;56.028;92.904;2023-12-29T12:47:32;17.80;;;9.83;;
42886;SDS011;29032;56.028;92.904;2023-12-29T12:52:37;17.63;;;10.40;;
42886;SDS011;29032;56.028;92.904;2023-12-29T12:57:40;19.97;;;10.93;;
42886;SDS011;29032;56.028;92.904;2023-12-29T13:02:45;21.17;;;10.73;;
42886;SDS011;29032;56.028;92.904;2023-12-29T13:07:48;16.80;;;9.43;;
42886;SDS011;29032;56.028;92.904;2023-12-29T13:12:53;20.90;;;10.07;;
42886;SDS011;29032;56.028;92.904;2023-12-29T13:17:57;18.37;;;9.73;;
42886;SDS011;29032;56.028;92.904;2023-12-29T13:22:59;19.67;;;9.67;;
42886;SDS011;29032;56.028;92.904;2023-12-29T13:28:02;18.27;;;9.57;;
42886;SDS011;29032;56.028;92.904;2023-12-29T13:33:07;16.87;;;10.50;;
42886;SDS011;29032;56.028;92.904;2023-12-29T13:38:17;14.87;;;9.00;;
42886;SDS011;29032;56.028;92.904;2023-12-29T13:43:23;14.03;;;8.67;;
42886;SDS011;29032;56.028;92.904;2023-12-29T13:48:27;15.10;;;8.83;;
42886;SDS011;29032;56.028;92.904;2023-12-29T13:53:30;12.17;;;7.37;;
42886;SDS011;29032;56.028;92.904;2023-12-29T13:58:33;14.27;;;8.23;;
42886;SDS011;29032;56.028;92.904;2023-12-29T14:03:42;12.87;;;7.77;;
42886;SDS011;29032;56.028;92.904;2023-12-29T14:08:47;10.70;;;6.40;;
42886;SDS011;29032;56.028;92.904;2023-12-29T14:13:50;10.80;;;6.53;;
42886;SDS011;29032;56.028;92.904;2023-12-29T14:18:56;11.33;;;5.73;;
42886;SDS011;29032;56.028;92.904;2023-12-29T14:24:08;10.25;;;6.13;;
42886;SDS011;29032;56.028;92.904;2023-12-29T14:29:11;10.80;;;7.37;;
42886;SDS011;29032;56.028;92.904;2023-12-29T14:34:15;12.90;;;6.70;;
42886;SDS011;29032;56.028;92.904;2023-12-29T14:39:18;9.63;;;6.07;;
42886;SDS011;29032;56.028;92.904;2023-12-29T14:44:20;13.13;;;6.53;;
42886;SDS011;29032;56.028;92.904;2023-12-29T14:49:24;12.13;;;7.40;;
42886;SDS011;29032;56.028;92.904;2023-12-29T14:54:26;11.73;;;5.93;;
42886;SDS011;29032;56.028;92.904;2023-12-29T14:59:28;12.40;;;6.27;;
42886;SDS011;29032;56.028;92.904;2023-12-29T15:04:32;12.23;;;6.17;;
42886;SDS011;29032;56.028;92.904;2023-12-29T15:09:34;11.57;;;6.37;;
42886;SDS011;29032;56.028;92.904;2023-12-29T15:14:36;8.87;;;6.13;;
42886;SDS011;29032;56.028;92.904;2023-12-29T15:19:40;11.90;;;7.00;;
42886;SDS011;29032;56.028;92.904;2023-12-29T15:24:42;11.20;;;6.53;;
42886;SDS011;29032;56.028;92.904;2023-12-29T15:29:44;10.53;;;6.40;;
42886;SDS011;29032;56.028;92.904;2023-12-29T15:34:48;11.60;;;5.53;;
42886;SDS011;29032;56.028;92.904;2023-12-29T15:39:50;11.13;;;6.37;;
42886;SDS011;29032;56.028;92.904;2023-12-29T15:44:52;10.47;;;6.73;;
42886;SDS011;29032;56.028;92.904;2023-12-29T15:49:56;10.77;;;5.90;;
42886;SDS011;29032;56.028;92.904;2023-12-29T15:54:58;12.33;;;6.67;;
42886;SDS011;29032;56.028;92.904;2023-12-29T16:00:00;11.10;;;6.20;;
42886;SDS011;29032;56.028;92.904;2023-12-29T16:05:14;9.40;;;5.80;;
42886;SDS011;29032;56.028;92.904;2023-12-29T16:10:16;9.97;;;5.97;;
42886;SDS011;29032;56.028;92.904;2023-12-29T16:15:18;9.20;;;5.47;;
42886;SDS011;29032;56.028;92.904;2023-12-29T16:20:22;7.53;;;4.53;;
42886;SDS011;29032;56.028;92.904;2023-12-29T16:25:24;5.70;;;4.30;;
42886;SDS011;29032;56.028;92.904;2023-12-29T16:30:26;8.80;;;5.03;;
42886;SDS011;29032;56.028;92.904;2023-12-29T16:35:30;7.33;;;4.27;;
42886;SDS011;29032;56.028;92.904;2023-12-29T16:40:32;7.60;;;4.23;;
42886;SDS011;29032;56.028;92.904;2023-12-29T16:45:34;9.23;;;4.80;;
42886;SDS011;29032;56.028;92.904;2023-12-29T16:50:38;6.77;;;4.10;;
42886;SDS011;29032;56.028;92.904;2023-12-29T16:55:41;7.97;;;4.37;;
42886;SDS011;29032;56.028;92.904;2023-12-29T17:00:43;6.07;;;3.73;;
42886;SDS011;29032;56.028;92.904;2023-12-29T17:05:47;19.37;;;11.67;;
42886;SDS011;29032;56.028;92.904;2023-12-29T17:10:49;20.97;;;10.93;;
42886;SDS011;29032;56.028;92.904;2023-12-29T17:15:52;25.00;;;13.07;;
42886;SDS011;29032;56.028;92.904;2023-12-29T17:20:55;33.63;;;18.33;;
42886;SDS011;29032;56.028;92.904;2023-12-29T17:25:58;34.57;;;20.07;;
42886;SDS011;29032;56.028;92.904;2023-12-29T17:31:01;39.00;;;20.63;;
42886;SDS011;29032;56.028;92.904;2023-12-29T17:36:08;42.43;;;22.53;;
42886;SDS011;29032;56.028;92.904;2023-12-29T17:41:11;45.03;;;22.70;;
42886;SDS011;29032;56.028;92.904;2023-12-29T17:46:13;56.13;;;30.03;;
42886;SDS011;29032;56.028;92.904;2023-12-29T17:51:20;53.03;;;26.57;;
42886;SDS011;29032;56.028;92.904;2023-12-29T17:56:22;51.33;;;25.13;;
42886;SDS011;29032;56.028;92.904;2023-12-29T18:01:24;44.70;;;24.13;;
42886;SDS011;29032;56.028;92.904;2023-12-29T18:06:28;40.67;;;19.43;;
42886;SDS011;29032;56.028;92.904;2023-12-29T18:11:30;42.20;;;18.77;;
42886;SDS011;29032;56.028;92.904;2023-12-29T18:16:33;43.20;;;19.60;;
42886;SDS011;29032;56.028;92.904;2023-12-29T18:21:36;41.93;;;20.93;;
42886;SDS011;29032;56.028;92.904;2023-12-29T18:26:40;44.70;;;24.33;;
42886;SDS011;29032;56.028;92.904;2023-12-29T18:31:42;44.30;;;23.37;;
42886;SDS011;29032;56.028;92.904;2023-12-29T18:36:45;49.80;;;22.07;;
42886;SDS011;29032;56.028;92.904;2023-12-29T18:41:48;50.77;;;25.47;;
42886;SDS011;29032;56.028;92.904;2023-12-29T18:46:50;43.67;;;22.93;;
42886;SDS011;29032;56.028;92.904;2023-12-29T18:51:53;66.53;;;36.63;;
42886;SDS011;29032;56.028;92.904;2023-12-29T18:56:56;63.93;;;32.70;;
42886;SDS011;29032;56.028;92.904;2023-12-29T19:01:58;64.37;;;32.77;;
42886;SDS011;29032;56.028;92.904;2023-12-29T19:07:01;65.23;;;32.50;;
42886;SDS011;29032;56.028;92.904;2023-12-29T19:12:04;63.50;;;31.07;;
42886;SDS011;29032;56.028;92.904;2023-12-29T19:17:07;56.60;;;28.70;;
42886;SDS011;29032;56.028;92.904;2023-12-29T19:22:11;63.07;;;30.73;;
42886;SDS011;29032;56.028;92.904;2023-12-29T19:27:14;62.70;;;30.03;;
42886;SDS011;29032;56.028;92.904;2023-12-29T19:32:17;56.37;;;29.63;;
42886;SDS011;29032;56.028;92.904;2023-12-29T19:37:20;56.37;;;29.67;;
42886;SDS011;29032;56.028;92.904;2023-12-29T19:42:23;53.37;;;27.83;;
42886;SDS011;29032;56.028;92.904;2023-12-29T19:47:25;49.13;;;25.90;;
42886;SDS011;29032;56.028;92.904;2023-12-29T19:52:29;45.73;;;23.73;;
42886;SDS011;29032;56.028;92.904;2023-12-29T19:57:31;48.23;;;24.43;;
42886;SDS011;29032;56.028;92.904;2023-12-29T20:02:33;50.00;;;23.40;;
42886;SDS011;29032;56.028;92.904;2023-12-29T20:07:37;42.70;;;22.83;;
42886;SDS011;29032;56.028;92.904;2023-12-29T20:12:39;47.33;;;22.57;;
42886;SDS011;29032;56.028;92.904;2023-12-29T20:17:41;41.87;;;21.47;;
42886;SDS011;29032;56.028;92.904;2023-12-29T20:22:45;42.33;;;21.13;;
42886;SDS011;29032;56.028;92.904;2023-12-29T20:27:47;33.03;;;18.50;;
42886;SDS011;29032;56.028;92.904;2023-12-29T20:32:49;36.33;;;19.23;;
42886;SDS011;29032;56.028;92.904;2023-12-29T20:37:53;25.50;;;14.80;;
42886;SDS011;29032;56.028;92.904;2023-12-29T20:42:55;13.20;;;8.37;;
42886;SDS011;29032;56.028;92.904;2023-12-29T20:47:57;8.57;;;5.07;;
42886;SDS011;29032;56.028;92.904;2023-12-29T20:53:01;5.93;;;3.63;;
42886;SDS011;29032;56.028;92.904;2023-12-29T20:58:03;5.73;;;4.03;;
42886;SDS011;29032;56.028;92.904;2023-12-29T21:03:05;7.33;;;4.43;;
42886;SDS011;29032;56.028;92.904;2023-12-29T21:08:09;8.70;;;4.87;;
42886;SDS011;29032;56.028;92.904;2023-12-29T21:13:11;8.00;;;4.90;;
42886;SDS011;29032;56.028;92.904;2023-12-29T21:18:14;8.37;;;5.50;;
42886;SDS011;29032;56.028;92.904;2023-12-29T21:23:17;5.73;;;3.40;;
42886;SDS011;29032;56.028;92.904;2023-12-29T21:28:19;2.27;;;1.97;;
42886;SDS011;29032;56.028;92.904;2023-12-29T21:33:22;3.70;;;1.60;;
42886;SDS011;29032;56.028;92.904;2023-12-29T21:38:25;2.07;;;1.40;;
42886;SDS011;29032;56.028;92.904;2023-12-29T21:43:28;1.53;;;1.40;;
42886;SDS011;29032;56.028;92.904;2023-12-29T21:48:30;1.50;;;1.40;;
42886;SDS011;29032;56.028;92.904;2023-12-29T21:53:34;1.77;;;1.40;;
42886;SDS011;29032;56.028;92.904;2023-12-29T21:58:36;2.30;;;1.90;;
42886;SDS011;29032;56.028;92.904;2023-12-29T22:03:39;2.90;;;2.13;;
42886;SDS011;29032;56.028;92.904;2023-12-29T22:08:42;2.63;;;1.60;;
42886;SDS011;29032;56.028;92.904;2023-12-29T22:13:44;3.23;;;1.80;;
42886;SDS011;29032;56.028;92.904;2023-12-29T22:18:47;3.33;;;1.20;;
42886;SDS011;29032;56.028;92.904;2023-12-29T22:23:51;1.33;;;1.23;;
42886;SDS011;29032;56.028;92.904;2023-12-29T22:28:54;1.50;;;1.30;;
42886;SDS011;29032;56.028;92.904;2023-12-29T22:33:56;1.63;;;1.50;;
42886;SDS011;29032;56.028;92.904;2023-12-29T22:39:00;2.03;;;1.60;;
42886;SDS011;29032;56.028;92.904;2023-12-29T22:44:02;1.30;;;1.20;;
42886;SDS011;29032;56.028;92.904;2023-12-29T22:49:05;1.60;;;1.40;;
42886;SDS011;29032;56.028;92.904;2023-12-29T22:54:09;1.40;;;1.30;;
42886;SDS011;29032;56.028;92.904;2023-12-29T22:59:11;2.43;;;1.60;;
42886;SDS011;29032;56.028;92.904;2023-12-29T23:04:13;1.70;;;1.60;;
42886;SDS011;29032;56.028;92.904;2023-12-29T23:09:18;1.97;;;1.60;;
42886;SDS011;29032;56.028;92.904;2023-12-29T23:14:20;2.20;;;1.70;;
42886;SDS011;29032;56.028;92.904;2023-12-29T23:19:22;3.07;;;2.20;;
42886;SDS011;29032;56.028;92.904;2023-12-29T23:24:27;4.93;;;2.77;;
42886;SDS011;29032;56.028;92.904;2023-12-29T23:29:29;6.97;;;4.40;;
42886;SDS011;29032;56.028;92.904;2023-12-29T23:34:31;9.03;;;4.20;;
42886;SDS011;29032;56.028;92.904;2023-12-29T23:39:35;5.53;;;3.23;;
42886;SDS011;29032;56.028;92.904;2023-12-29T23:44:37;11.97;;;6.03;;
42886;SDS011;29032;56.028;92.904;2023-12-29T23:49:40;10.20;;;6.00;;
42886;SDS011;29032;56.028;92.904;2023-12-29T23:54:43;6.67;;;4.10;;
42886;SDS011;29032;56.028;92.904;2023-12-29T23:59:45;5.77;;;3.93;;
